Time;durP1;ratioP1;P1;durP2;ratioP2;P2;SDS_P1;SDS_P2;PMS_P1;PMS_P2;Temp;Humidity;BMP_temperature;BMP_pressure;BME280_temperature;BME280_humidity;BME280_pressure;Samples;Min_cycle;Max_cycle;Signal;HPM_P1;HPM_P2
2022/09/16 05:31:30;;;;;;;12.95;11.22;;;;;;;15.67;100.00;98760.18;1737851;81;21811;-49
2022/09/16 05:33:59;;;;;;;13.20;10.40;;;;;;;15.66;100.00;98753.20;1733449;82;21986;-38
2022/09/16 05:36:28;;;;;;;14.23;11.83;;;;;;;15.68;100.00;98754.44;1736593;81;21041;-50
2022/09/16 05:38:55;;;;;;;12.85;11.03;;;;;;;15.68;100.00;98747.39;1736987;81;21073;-40
2022/09/16 05:41:28;;;;;;;12.85;11.10;;;;;;;15.71;100.00;98751.66;1736806;81;21454;-40
2022/09/16 05:43:58;;;;;;;12.03;10.53;;;;;;;15.73;100.00;98747.66;1736700;81;21489;-50
2022/09/16 05:46:25;;;;;;;13.05;11.65;;;;;;;15.76;100.00;98750.13;1738947;81;21526;-40
2022/09/16 05:48:52;;;;;;;13.72;11.57;;;;;;;15.76;100.00;98745.70;1740289;81;21518;-47
2022/09/16 05:51:21;;;;;;;14.75;11.12;;;;;;;15.80;100.00;98754.34;1737092;82;21151;-49
2022/09/16 05:53:49;;;;;;;14.70;11.78;;;;;;;15.82;100.00;98752.02;1735756;81;21860;-49
2022/09/16 05:56:20;;;;;;;13.90;11.22;;;;;;;15.85;100.00;98764.23;1735729;81;21459;-38
2022/09/16 05:58:47;;;;;;;16.27;11.43;;;;;;;15.86;100.00;98764.62;1739998;81;21513;-38
2022/09/16 06:01:17;;;;;;;13.93;11.08;;;;;;;15.86;100.00;98765.47;1738981;81;21469;-39
2022/09/16 06:03:46;;;;;;;12.50;11.22;;;;;;;15.88;100.00;98765.39;1736911;81;21038;-39
2022/09/16 06:06:28;;;;;;;14.83;11.60;;;;;;;15.92;100.00;98771.78;1739819;81;21024;-48
2022/09/16 06:08:58;;;;;;;19.95;11.65;;;;;;;15.95;100.00;98760.25;1736389;81;21761;-40
2022/09/16 06:11:27;;;;;;;12.88;10.65;;;;;;;16.00;100.00;98762.66;1715414;82;21100;-48
2022/09/16 06:13:58;;;;;;;12.50;11.18;;;;;;;16.01;100.00;98767.88;1736294;81;21535;-39
2022/09/16 06:16:25;;;;;;;13.72;10.65;;;;;;;16.01;100.00;98767.03;1704941;83;21374;-48
2022/09/16 06:18:54;;;;;;;11.83;10.58;;;;;;;16.01;100.00;98767.03;1742845;82;21100;-49
2022/09/16 06:21:20;;;;;;;12.40;11.15;;;;;;;16.01;100.00;98769.66;1737549;82;21838;-49
2022/09/16 06:23:47;;;;;;;17.25;12.43;;;;;;;16.00;100.00;98775.84;1739451;81;21092;-39
2022/09/16 06:26:19;;;;;;;14.35;11.53;;;;;;;15.98;100.00;98771.96;1735549;81;21237;-39
2022/09/16 06:28:46;;;;;;;16.10;11.83;;;;;;;16.00;100.00;98770.09;1736218;81;21953;-39
2022/09/16 06:31:18;;;;;;;16.15;11.65;;;;;;;16.03;100.00;98769.97;1736321;82;21080;-41
2022/09/16 06:33:44;;;;;;;13.85;12.28;;;;;;;16.05;100.00;98773.84;1736013;81;21030;-38
2022/09/16 06:36:14;;;;;;;13.40;12.05;;;;;;;16.06;100.00;98780.83;1721931;81;21005;-38
2022/09/16 06:38:43;;;;;;;15.88;13.68;;;;;;;16.07;100.00;98776.83;1716586;81;21029;-38
2022/09/16 06:41:11;;;;;;;13.28;12.00;;;;;;;16.08;100.00;98784.27;1721177;81;21419;-40
2022/09/16 06:43:37;;;;;;;16.37;14.10;;;;;;;16.08;100.00;98776.36;1718834;82;21112;-38
2022/09/16 06:46:12;;;;;;;14.55;12.82;;;;;;;16.09;100.00;98779.38;1714968;82;21279;-39
2022/09/16 06:48:40;;;;;;;14.78;12.65;;;;;;;16.11;100.00;98769.61;1714976;81;21603;-38
2022/09/16 06:51:10;;;;;;;13.00;11.78;;;;;;;16.14;100.00;98774.29;1714990;81;20957;-38
2022/09/16 06:53:37;;;;;;;13.60;12.15;;;;;;;16.17;100.00;98766.22;1714956;82;21704;-38
2022/09/16 06:56:07;;;;;;;21.30;12.70;;;;;;;16.20;100.00;98762.12;1716486;82;21110;-38
2022/09/16 06:58:34;;;;;;;15.98;13.80;;;;;;;16.23;100.00;98762.00;1716868;82;21583;-39
2022/09/16 07:01:07;;;;;;;16.12;12.78;;;;;;;16.26;100.00;98757.49;1722531;81;21488;-39
2022/09/16 07:03:44;;;;;;;16.05;13.50;;;;;;;16.29;100.00;98754.69;1721093;81;21045;-49
2022/09/16 07:06:13;;;;;;;16.02;13.90;;;;;;;16.31;100.00;98752.39;1732107;81;21042;-38
2022/09/16 07:08:42;;;;;;;16.85;14.23;;;;;;;16.34;100.00;98744.31;1726320;81;21124;-39
2022/09/16 07:11:12;;;;;;;16.15;13.93;;;;;;;16.39;100.00;98758.61;1730125;81;21409;-40
2022/09/16 07:13:38;;;;;;;15.45;13.72;;;;;;;16.42;100.00;98751.87;1728376;81;21004;-39
2022/09/16 07:16:09;;;;;;;21.90;14.40;;;;;;;16.46;100.00;98746.82;1723514;81;21121;-39
2022/09/16 07:18:36;;;;;;;17.30;13.88;;;;;;;16.49;100.00;98740.94;1695379;81;20997;-39
2022/09/16 07:21:06;;;;;;;16.62;13.90;;;;;;;16.55;100.00;98746.39;1720657;81;20978;-40
2022/09/16 07:23:34;;;;;;;17.00;14.83;;;;;;;16.59;100.00;98753.70;1720639;81;22096;-39
2022/09/16 07:26:11;;;;;;;16.50;14.28;;;;;;;16.64;100.00;98768.83;1721778;81;21419;-49
2022/09/16 07:28:40;;;;;;;24.20;15.63;;;;;;;16.68;100.00;98771.25;1702011;81;21431;-38
2022/09/16 07:31:10;;;;;;;17.00;15.20;;;;;;;16.72;100.00;98773.33;1719683;81;21367;-38
2022/09/16 07:33:43;;;;;;;22.45;15.60;;;;;;;16.78;100.00;98773.48;1722910;82;21060;-37
2022/09/16 07:36:12;;;;;;;17.87;16.07;;;;;;;16.84;100.00;98771.86;1732096;81;21045;-40
2022/09/16 07:38:39;;;;;;;20.25;18.10;;;;;;;16.90;100.00;98771.09;1734412;81;21009;-39
2022/09/16 07:41:20;;;;;;;21.15;16.30;;;;;;;16.98;100.00;98772.87;1732518;81;20970;-40
2022/09/16 07:43:49;;;;;;;21.57;16.87;;;;;;;17.08;100.00;98765.34;1742447;81;21769;-40
2022/09/16 07:46:22;;;;;;;18.92;15.32;;;;;;;17.22;100.00;98770.80;1703195;83;21639;-40
2022/09/16 07:48:51;;;;;;;17.57;15.68;;;;;;;17.39;100.00;98779.63;1734822;81;21446;-50
2022/09/16 07:51:21;;;;;;;20.12;14.13;;;;;;;17.54;100.00;98786.77;1730509;81;20997;-39
2022/09/16 07:53:54;;;;;;;16.17;14.43;;;;;;;17.65;100.00;98785.75;1730897;81;21057;-49
2022/09/16 07:56:24;;;;;;;14.60;13.08;;;;;;;17.74;100.00;98792.36;1733677;81;21566;-50
2022/09/16 07:58:51;;;;;;;17.07;15.28;;;;;;;17.82;100.00;98783.57;1739820;81;21061;-50
2022/09/16 08:01:19;;;;;;;17.02;13.40;;;;;;;17.86;100.00;98782.48;1729027;81;21548;-50
2022/09/16 08:03:47;;;;;;;14.75;13.30;;;;;;;17.90;100.00;98780.50;1736375;81;21518;-40
2022/09/16 08:06:21;;;;;;;17.20;12.15;;;;;;;17.93;100.00;98782.52;1732166;81;21007;-50
2022/09/16 08:08:51;;;;;;;15.50;13.90;;;;;;;17.97;100.00;98778.75;1737869;81;21039;-40
2022/09/16 08:11:17;;;;;;;17.62;13.90;;;;;;;18.03;100.00;98772.28;1727279;81;21423;-39
2022/09/16 08:13:45;;;;;;;19.00;17.00;;;;;;;18.08;100.00;98771.09;1729177;81;21075;-39
2022/09/16 08:16:16;;;;;;;14.65;13.13;;;;;;;18.12;100.00;98773.11;1732067;81;22020;-48
2022/09/16 08:18:46;;;;;;;21.07;14.43;;;;;;;18.12;100.00;98772.27;1733790;81;21448;-45
2022/09/16 08:21:17;;;;;;;18.48;14.90;;;;;;;18.13;100.00;98775.29;1731280;81;21429;-50
2022/09/16 08:23:44;;;;;;;14.13;12.63;;;;;;;18.16;100.00;98775.98;1731346;81;21057;-50
2022/09/16 08:26:12;;;;;;;11.57;10.05;;;;;;;18.23;100.00;98779.14;1739835;81;21663;-51
2022/09/16 08:28:41;;;;;;;12.28;10.98;;;;;;;18.30;100.00;98784.00;1743271;81;21065;-53
2022/09/16 08:31:09;;;;;;;15.20;11.78;;;;;;;18.39;100.00;98780.01;1737030;81;21037;-54
2022/09/16 08:33:41;;;;;;;11.55;10.30;;;;;;;18.50;100.00;98773.64;1713966;81;21056;-52
2022/09/16 08:36:18;;;;;;;10.43;9.20;;;;;;;18.61;100.00;98776.98;1728171;81;21049;-42
2022/09/16 08:38:45;;;;;;;16.93;10.88;;;;;;;18.71;100.00;98778.69;1741234;81;21048;-42
2022/09/16 08:41:55;;;;;;;18.12;10.28;;;;;;;18.75;100.00;98784.20;1737559;81;21597;-41
2022/09/16 08:44:56;;;;;;;16.00;11.73;;;;;;;18.73;100.00;98793.56;1739378;81;21950;-42
2022/09/16 08:48:11;;;;;;;14.58;12.03;;;;;;;18.68;100.00;98789.47;1652307;84;22333;-51
2022/09/16 08:50:41;;;;;;;18.85;15.48;;;;;;;18.63;100.00;98792.81;1651209;85;21451;-52
2022/09/16 08:53:21;;;;;;;20.52;16.20;;;;;;;18.54;100.00;98793.70;1660658;84;21053;-51
2022/09/16 08:55:49;;;;;;;18.77;16.52;;;;;;;18.45;100.00;98794.70;1665663;85;21445;-52
2022/09/16 08:58:30;;;;;;;22.77;16.85;;;;;;;18.32;100.00;98800.68;1664417;85;21031;-41
2022/09/16 09:01:02;;;;;;;22.98;16.42;;;;;;;18.23;100.00;98805.14;1659020;84;20993;-41
2022/09/16 09:03:37;;;;;;;21.45;18.73;;;;;;;18.15;100.00;98804.72;1662900;84;21061;-52
2022/09/16 09:06:15;;;;;;;21.82;19.48;;;;;;;18.07;100.00;98802.94;1655912;84;21133;-52
2022/09/16 09:09:25;;;;;;;22.85;20.48;;;;;;;17.96;100.00;98803.98;1660091;84;21052;-51
2022/09/16 09:12:08;;;;;;;21.55;19.35;;;;;;;17.88;100.00;98808.38;1663072;85;20997;-52
2022/09/16 09:15:09;;;;;;;20.55;18.35;;;;;;;17.79;100.00;98808.38;1670630;84;21003;-50
2022/09/16 09:18:06;;;;;;;19.98;17.87;;;;;;;17.75;100.00;98809.49;1663288;84;21595;-50
2022/09/16 09:20:50;;;;;;;19.00;17.00;;;;;;;17.73;100.00;98805.20;1661585;84;21181;-51
2022/09/16 09:23:35;;;;;;;17.67;15.78;;;;;;;17.74;100.00;98803.83;1674513;81;21029;-42
2022/09/16 09:26:14;;;;;;;17.48;15.48;;;;;;;17.77;100.00;98812.05;1738590;81;21021;-52
2022/09/16 09:29:07;;;;;;;21.82;15.48;;;;;;;17.81;100.00;98810.96;1712999;83;21076;-42
2022/09/16 09:32:04;;;;;;;16.17;14.00;;;;;;;17.81;100.00;98811.81;1739809;81;21031;-41
2022/09/16 09:34:53;;;;;;;15.10;13.43;;;;;;;17.81;100.00;98813.61;1739431;81;21698;-41
2022/09/16 09:38:00;;;;;;;16.75;13.78;;;;;;;17.86;100.00;98823.92;1742747;81;20997;-42
2022/09/16 09:40:55;;;;;;;18.20;12.25;;;;;;;17.90;100.00;98821.03;1663593;85;21437;-51
2022/09/16 09:43:50;;;;;;;15.23;13.62;;;;;;;17.97;100.00;98824.20;1662161;84;21686;-50
2022/09/16 09:46:36;;;;;;;16.05;13.22;;;;;;;18.01;100.00;98825.76;1632086;86;21477;-51
2022/09/16 09:49:45;;;;;;;18.75;12.60;;;;;;;18.03;100.00;98829.17;1656260;84;21103;-41
2022/09/16 09:52:38;;;;;;;11.28;10.08;;;;;;;18.01;100.00;98829.26;1661690;85;21622;-51
2022/09/16 09:55:20;;;;;;;12.80;8.90;;;;;;;17.96;100.00;98831.77;1662554;85;21080;-51
2022/09/16 09:58:10;;;;;;;10.70;7.72;;;;;;;17.90;100.00;98836.05;1659399;85;21505;-51
2022/09/16 10:00:37;;;;;;;10.28;7.80;;;;;;;17.88;100.00;98837.47;1668363;84;21063;-41
2022/09/16 10:03:13;;;;;;;11.03;8.75;;;;;;;17.92;100.00;98839.50;1660594;84;21239;-41
2022/09/16 10:05:41;;;;;;;11.33;9.28;;;;;;;17.92;100.00;98846.97;1660940;85;21845;-51
2022/09/16 10:08:34;;;;;;;9.83;8.83;;;;;;;17.95;100.00;98852.08;1664937;84;21509;-42
2022/09/16 10:11:02;;;;;;;10.03;8.08;;;;;;;17.98;100.00;98851.08;1662813;83;21485;-42
2022/09/16 10:13:30;;;;;;;12.75;7.80;;;;;;;18.00;100.00;98852.69;1649497;86;21680;-42
2022/09/16 10:16:15;;;;;;;8.45;7.58;;;;;;;18.03;100.00;98856.95;1643022;83;21044;-42
2022/09/16 10:18:42;;;;;;;8.15;6.70;;;;;;;18.05;100.00;98859.07;1722232;81;21051;-42
2022/09/16 10:21:12;;;;;;;6.50;5.90;;;;;;;18.02;100.00;98859.22;1722231;81;21344;-42
2022/09/16 10:23:39;;;;;;;6.08;5.55;;;;;;;18.00;100.00;98863.75;1726290;81;21980;-42
2022/09/16 10:56:51;;;;;;;2.45;2.25;;;;;;;17.88;100.00;98872.33;1737451;81;21553;-41
2022/09/16 10:59:18;;;;;;;2.25;2.08;;;;;;;17.98;100.00;98881.50;1729358;82;21549;-42
2022/09/16 11:02:08;;;;;;;2.05;1.70;;;;;;;18.12;100.00;98892.20;1730083;82;21508;-42
2022/09/16 11:05:05;;;;;;;1.92;1.47;;;;;;;18.25;100.00;98900.34;1681208;83;21034;-43
2022/09/16 11:07:55;;;;;;;2.22;1.62;;;;;;;18.56;100.00;98891.62;1747689;81;21072;-51
2022/09/16 11:11:00;;;;;;;2.15;1.95;;;;;;;18.63;100.00;98892.13;1740676;81;21057;-51
2022/09/16 11:13:47;;;;;;;5.17;2.08;;;;;;;18.68;100.00;98895.42;1726115;82;21608;-51
2022/09/16 11:16:49;;;;;;;3.50;2.10;;;;;;;18.60;100.00;98896.64;1704633;83;21604;-41
2022/09/16 11:19:43;;;;;;;2.95;1.85;;;;;;;18.50;100.00;98884.86;1740111;81;21572;-41
2022/09/16 11:22:33;;;;;;;1.57;1.47;;;;;;;18.51;100.00;98881.74;1732445;81;20988;-49
2022/09/16 11:25:51;;;;;;;1.82;1.30;;;;;;;18.67;100.00;98886.63;1732523;81;21390;-41
2022/09/16 11:29:03;;;;;;;1.60;1.50;;;;;;;18.79;100.00;98884.61;1700827;83;21611;-40
2022/09/16 11:31:55;;;;;;;4.80;1.45;;;;;;;18.86;100.00;98891.75;1640692;84;21025;-38
2022/09/16 11:34:45;;;;;;;1.70;1.60;;;;;;;18.86;98.78;98902.34;1609335;87;21156;-39
2022/09/16 11:37:36;;;;;;;1.60;1.50;;;;;;;18.82;98.02;98894.17;1606931;87;21033;-39
2022/09/16 11:40:27;;;;;;;1.62;1.52;;;;;;;18.82;97.78;98892.84;1607736;87;21051;-51
2022/09/16 11:43:32;;;;;;;1.30;1.20;;;;;;;18.86;97.82;98892.59;1605604;87;21714;-51
2022/09/16 11:46:10;;;;;;;7.10;1.77;;;;;;;18.90;96.18;98901.20;1599231;88;21582;-43
2022/09/16 11:49:01;;;;;;;2.15;1.95;;;;;;;18.89;95.91;98895.53;1616117;87;21069;-41
2022/09/16 11:52:03;;;;;;;3.45;2.35;;;;;;;18.97;97.65;98895.97;1593882;87;21013;-39
2022/09/16 11:54:58;;;;;;;2.33;2.12;;;;;;;19.02;95.99;98894.40;1621266;87;21076;-40
2022/09/16 11:57:30;;;;;;;4.42;3.10;;;;;;;19.03;96.48;98892.12;1610536;87;21783;-50
2022/09/16 12:00:06;;;;;;;5.25;3.30;;;;;;;18.98;95.96;98892.38;1623046;87;21017;-41
2022/09/16 12:03:03;;;;;;;3.17;2.42;;;;;;;18.97;96.14;98905.25;1638057;84;21465;-50
2022/09/16 12:05:38;;;;;;;4.08;1.98;;;;;;;18.98;96.36;98897.67;1667944;84;21043;-48
2022/09/16 12:08:22;;;;;;;2.45;1.90;;;;;;;19.04;96.39;98901.30;1674508;84;21112;-39
2022/09/16 12:11:01;;;;;;;4.10;1.57;;;;;;;19.09;97.16;98897.92;1687625;82;21070;-42
2022/09/16 12:13:48;;;;;;;9.43;1.82;;;;;;;19.16;96.46;98901.08;1739867;81;21127;-39
2022/09/16 12:16:19;;;;;;;2.27;1.85;;;;;;;19.23;96.51;98898.92;1729933;81;21585;-39
2022/09/16 12:18:55;;;;;;;3.90;2.10;;;;;;;19.27;93.13;98911.07;1739352;81;21517;-39
2022/09/16 12:21:42;;;;;;;2.15;1.80;;;;;;;19.26;92.25;98910.70;1726583;82;21021;-40
2022/09/16 12:24:15;;;;;;;1.80;1.70;;;;;;;19.22;91.70;98917.95;1733253;81;21061;-49
2022/09/16 12:26:58;;;;;;;2.10;1.90;;;;;;;19.18;91.04;98916.89;1731123;82;21901;-49
2022/09/16 12:29:40;;;;;;;2.77;2.15;;;;;;;19.15;92.04;98911.30;1659219;85;21031;-40
2022/09/16 12:32:27;;;;;;;3.35;2.90;;;;;;;19.17;92.14;98917.83;1681967;84;21036;-41
2022/09/16 12:35:01;;;;;;;2.27;1.90;;;;;;;19.18;91.68;98912.91;1672918;85;21230;-44
2022/09/16 12:37:41;;;;;;;2.62;1.85;;;;;;;19.20;91.46;98920.33;1676116;85;21491;-39
2022/09/16 12:40:19;;;;;;;11.73;1.80;;;;;;;19.23;90.68;98930.73;1672793;85;20985;-49
2022/09/16 12:43:05;;;;;;;2.33;1.77;;;;;;;19.25;90.40;98934.14;1670672;85;21541;-40
2022/09/16 12:46:03;;;;;;;2.95;2.35;;;;;;;19.26;90.16;98935.41;1682527;85;21042;-49
2022/09/16 12:49:01;;;;;;;1.65;1.55;;;;;;;19.28;90.38;98944.59;1639423;86;21068;-49
2022/09/16 12:52:10;;;;;;;2.17;1.80;;;;;;;19.30;90.84;98946.67;1641400;86;21056;-39
2022/09/16 12:55:00;;;;;;;1.80;1.70;;;;;;;19.30;90.27;98944.88;1644900;86;21053;-49
2022/09/16 12:57:35;;;;;;;1.90;1.45;;;;;;;19.31;90.70;98945.28;1615000;87;21168;-49
2022/09/16 13:00:18;;;;;;;3.08;1.77;;;;;;;19.31;87.86;98949.73;1626292;87;21086;-40
2022/09/16 13:02:51;;;;;;;5.15;2.10;;;;;;;19.31;88.10;98951.06;1621343;87;21064;-40
2022/09/16 13:05:33;;;;;;;2.75;1.40;;;;;;;19.32;87.16;98947.47;1633407;87;21037;-49
2022/09/16 13:08:05;;;;;;;1.70;1.52;;;;;;;19.33;86.88;98940.73;1648761;87;21644;-40
2022/09/16 13:10:39;;;;;;;1.55;1.40;;;;;;;19.37;85.17;98940.95;1648692;87;21052;-49
2022/09/16 13:13:06;;;;;;;1.65;1.55;;;;;;;19.39;84.72;98934.23;1646923;85;22341;-49
2022/09/16 13:15:37;;;;;;;1.60;1.45;;;;;;;19.39;85.57;98933.76;1643374;87;21140;-39
2022/09/16 13:18:25;;;;;;;2.00;1.40;;;;;;;19.39;86.01;98939.06;1641500;86;21584;-40
2022/09/16 13:20:59;;;;;;;7.08;1.47;;;;;;;19.45;86.38;98941.83;1649339;87;21079;-40
2022/09/16 13:23:34;;;;;;;4.83;1.80;;;;;;;19.53;85.79;98944.88;1645670;86;21746;-40
2022/09/16 13:26:06;;;;;;;1.50;1.20;;;;;;;19.57;85.18;98942.45;1679948;84;21064;-39
2022/09/16 13:28:37;;;;;;;1.55;1.45;;;;;;;19.58;83.45;98941.53;1703195;83;21062;-49
2022/09/16 13:31:17;;;;;;;1.75;1.50;;;;;;;19.58;83.44;98936.22;1703248;84;21076;-39
2022/09/16 13:34:00;;;;;;;1.60;1.50;;;;;;;19.57;82.73;98937.61;1719629;81;21112;-49
2022/09/16 13:36:30;;;;;;;2.87;1.40;;;;;;;19.55;81.35;98940.84;1679604;85;21106;-49
2022/09/16 13:39:04;;;;;;;1.55;1.45;;;;;;;19.55;82.07;98946.14;1679684;84;21043;-49
2022/09/16 13:41:41;;;;;;;2.22;1.60;;;;;;;19.55;82.37;98951.45;1679829;85;21522;-49
2022/09/16 13:44:33;;;;;;;1.30;1.20;;;;;;;19.55;82.51;98944.81;1686212;84;21038;-41
2022/09/16 13:47:14;;;;;;;4.35;2.52;;;;;;;19.56;82.48;98939.89;1682969;85;20962;-40
2022/09/16 13:49:45;;;;;;;3.17;1.75;;;;;;;19.58;82.09;98946.83;1677003;85;21455;-49
2022/09/16 13:52:29;;;;;;;1.87;1.62;;;;;;;19.60;82.29;98942.79;1663552;86;21029;-49
2022/09/16 13:55:00;;;;;;;1.50;1.40;;;;;;;19.65;82.43;98951.30;1675655;84;21038;-48
2022/09/16 13:57:55;;;;;;;3.65;1.60;;;;;;;19.70;81.88;98956.35;1673972;85;21597;-49
2022/09/16 14:00:47;;;;;;;1.75;1.65;;;;;;;19.72;80.86;98956.66;1625176;88;21677;-49
2022/09/16 14:03:28;;;;;;;2.12;1.92;;;;;;;19.76;81.02;98955.98;1624571;88;21043;-40
2022/09/16 14:06:28;;;;;;;4.15;2.05;;;;;;;19.81;80.28;98963.21;1603204;89;21038;-39
2022/09/16 14:09:06;;;;;;;1.98;1.50;;;;;;;19.83;80.85;98962.64;1604609;89;21126;-50
2022/09/16 14:11:41;;;;;;;6.12;1.75;;;;;;;19.87;80.62;98976.12;1609730;89;21110;-40
2022/09/16 14:14:16;;;;;;;2.37;1.60;;;;;;;19.86;81.07;98972.61;1636483;85;21084;-40
2022/09/16 14:16:43;;;;;;;1.55;1.45;;;;;;;19.84;79.94;98967.88;1654230;85;21638;-39
2022/09/16 14:19:27;;;;;;;3.77;1.60;;;;;;;19.80;78.55;98970.80;1673276;85;21112;-49
